• Join FlightAware (Why Join?)
  • Login
  • US Flag 
11:49PM EDT


 

Airport Tracker/Info


-or-


 

Live Flight TrackerFlight Track Log ✈ EJA922 ✈ 19-Oct-2013 ✈ KICT - KVNY

Flight Track Log - Related Links

Times and Time Zones

All times are in EDT time to prevent confusion due to time zone crossing. See the EJA922 flight status page for this flight to view local times or setup timezone preferences in your user account.

Time Position Orientation Groundspeed Altitude Reporting Facility
EDT Latitude Longitude Course Direction KTS MPH feet Rate Location/Type
03:54PM 37.6425 -97.4275 217° Southwest 177 204 2,000  Level Kansas City Center
03:55PM 37.6156 -97.4528 217° Southwest 195 224 4,200 3,060 Climbing Kansas City Center
03:56PM 37.6119 -97.4917 263° West 216 249 5,700 2,820 Climbing Kansas City Center
03:57PM 37.6169 -97.5783 274° West 242 278 8,800 2,760 Climbing Kansas City Center
03:58PM 37.6208 -97.6769 273° West 271 312 11,500 2,700 Climbing Kansas City Center
03:59PM 37.6164 -97.7975 267° West 340 391 14,400 2,700 Climbing Kansas City Center
04:00PM 37.6083 -97.9178 265° West 341 392 17,100 2,400 Climbing Kansas City Center
04:01PM 37.5994 -98.0419 265° West 348 400 19,400 2,340 Climbing Kansas City Center
04:02PM 37.5903 -98.1708 265° West 360 414 21,900 2,220 Climbing Kansas City Center
04:03PM 37.5808 -98.3022 265° West 370 426 24,000 1,980 Climbing Kansas City Center
04:04PM 37.5711 -98.4381 265° West 381 438 26,100 1,980 Climbing Kansas City Center
04:05PM 37.5608 -98.5769 265° West 392 451 28,100 2,220 Climbing Kansas City Center
04:06PM 37.5472 -98.7475 264° West 403 464 30,700 2,340 Climbing Kansas City Center
04:07PM 37.5364 -98.8908 265° West 409 471 32,900 1,560 Climbing Kansas City Center
04:08PM 37.5244 -99.0361 264° West 414 476 34,000 2,220 Climbing Kansas City Center
04:09PM 37.5131 -99.1828 264° West 417 480 37,500 2,460 Climbing Kansas City Center
04:10PM 37.5028 -99.3200 265° West 399 459 39,100 1,320 Climbing Kansas City Center
04:11PM 37.4906 -99.4633 264° West 390 449 40,300 1,080 Climbing Kansas City Center
04:12PM 37.4767 -99.6189 264° West 398 458 41,400 960 Climbing Kansas City Center
04:13PM 37.4653 -99.7528 264° West 401 461 42,300 780 Climbing Kansas City Center
04:14PM 37.4519 -99.9092 264° West 402 463 43,000 300 Climbing Kansas City Center
04:15PM 37.4400 -100.0464 264° West 408 470 43,000  Level Kansas City Center
04:16PM 37.4278 -100.1883 264° West 419 482 43,000  Level Kansas City Center
04:17PM 37.4133 -100.3522 264° West 422 486 43,000  Level Kansas City Center
04:18PM 37.4006 -100.4925 264° West 421 484 43,000  Level Kansas City Center
04:19PM 37.3858 -100.6561 264° West 420 483 43,000  Level Kansas City Center
04:20PM 37.3728 -100.7933 263° West 413 475 43,000  Level Kansas City Center
04:21PM 37.3597 -100.9333 263° West 415 478 43,000  Level Kansas City Center
04:22PM 37.3433 -101.0967 263° West 418 481 43,000  Level Kansas City Center
04:23PM 37.3294 -101.2369 263° West 420 483 43,000  Level Kansas City Center
04:24PM 37.3131 -101.3997 263° West 419 482 43,000  Level Kansas City Center
04:25PM 37.2992 -101.5392 263° West 420 483 43,000  Level Kansas City Center
04:26PM 37.2822 -101.7017 263° West 421 484 43,000  Level Kansas City Center
04:27PM 37.2675 -101.8419 263° West 422 486 43,000  Level Kansas City Center
04:29PM 37.2536 -101.9836 263° West 424 488 43,000  Level Kansas City Center
04:30PM 37.2347 -102.1467 262° West 424 488 43,000  Level Kansas City Center
04:31PM 37.2197 -102.2881 262° West 426 490 43,000  Level Kansas City Center
04:32PM 37.2033 -102.4519 263° West 425 489 43,000  Level Kansas City Center
04:33PM 37.1872 -102.5922 262° West 425 489 43,000  Level Kansas City Center
04:34PM 37.1692 -102.7572 262° West 428 493 43,000  Level Kansas City Center
04:35PM 37.1550 -102.8900 262° West 425 489 43,000  Level Denver Center
04:36PM 37.1386 -103.0331 262° West 430 495 43,000  Level Denver Center
04:37PM 37.1214 -103.1769 262° West 435 501 43,000  Level Denver Center
04:37PM 37.1139 -103.2508 263° West 436 502 43,000  Level Albuquerque Center
04:38PM 37.0939 -103.4206 262° West 439 505 43,000  Level Albuquerque Center
04:39PM 37.0767 -103.5642 261° West 435 501 43,000  Level Albuquerque Center
04:40PM 37.0567 -103.7336 262° West 438 504 43,000  Level Albuquerque Center
04:41PM 37.0386 -103.8775 261° West 436 502 43,000  Level Albuquerque Center
04:42PM 37.0208 -104.0236 261° West 438 504 43,000  Level Albuquerque Center
04:43PM 36.9994 -104.1967 261° West 446 513 43,000  Level Albuquerque Center
04:44PM 36.9819 -104.3436 262° West 446 513 43,000  Level Albuquerque Center
04:45PM 36.9686 -104.4411 260° West 442 509 43,000  Level Denver Center
04:46PM 36.9503 -104.5839 261° West 436 502 43,000  Level Denver Center
04:47PM 36.9314 -104.7303 261° West 442 509 43,000  Level Denver Center
04:48PM 36.9106 -104.8894 261° West 448 516 43,000  Level Denver Center
04:49PM 36.8894 -105.0433 260° West 450 518 43,000  Level Denver Center
04:50PM 36.8664 -105.2247 261° West 453 521 43,000  Level Denver Center
04:51PM 36.8472 -105.3731 261° West 452 520 43,000  Level Denver Center
04:52PM 36.8228 -105.5425 260° West 446 513 43,000  Level Denver Center
04:53PM 36.8025 -105.6886 260° West 446 513 43,000  Level Denver Center
04:54PM 36.7833 -105.8364 261° West 449 517 43,000  Level Denver Center
04:55PM 36.7586 -106.0078 260° West 451 519 43,000  Level Denver Center
04:56PM 36.7397 -106.1478 260° West 452 520 43,000  Level Denver Center
04:57PM 36.7178 -106.3017 260° West 453 521 43,000  Level Denver Center
04:58PM 36.6911 -106.4886 260° West 457 526 43,000  Level Denver Center
04:59PM 36.6703 -106.6333 260° West 455 524 43,000  Level Denver Center
05:00PM 36.6436 -106.8072 259° West 457 526 43,000  Level Denver Center
05:01PM 36.6233 -106.9572 260° West 459 528 43,000  Level Denver Center
05:02PM 36.5964 -107.1303 259° West 457 526 43,000  Level Denver Center
05:03PM 36.5744 -107.2761 259° West 451 519 43,000  Level Denver Center
05:04PM 36.5528 -107.4203 259° West 445 512 43,000  Level Denver Center
05:05PM 36.5261 -107.5894 259° West 445 512 43,000  Level Denver Center
05:06PM 36.5042 -107.7367 260° West 451 519 43,000  Level Denver Center
05:07PM 36.4769 -107.9108 259° West 458 527 43,000  Level Denver Center
05:08PM 36.4531 -108.0603 259° West 460 529 43,000  Level Denver Center
05:10PM 36.4256 -108.2353 259° West 465 535 43,000  Level Denver Center
05:11PM 36.4014 -108.3806 258° West 454 522 43,000  Level Denver Center
05:12PM 36.3750 -108.5508 259° West 451 519 43,000  Level Denver Center
05:13PM 36.3511 -108.6947 258° West 450 518 43,000  Level Denver Center
05:14PM 36.3244 -108.8628 259° West 449 517 43,000  Level Denver Center
05:15PM 36.2997 -109.0067 258° West 451 519 43,000  Level Denver Center
05:16PM 36.2714 -109.1739 258° West 449 517 43,000  Level Denver Center
05:17PM 36.2467 -109.3181 258° West 450 518 43,000  Level Denver Center
05:18PM 36.2225 -109.4628 258° West 450 518 43,000  Level Denver Center
05:19PM 36.1928 -109.6317 258° West 450 518 43,000  Level Denver Center
05:20PM 36.1672 -109.7769 258° West 452 520 43,000  Level Denver Center
05:21PM 36.1375 -109.9469 258° West 453 521 43,000  Level Denver Center
05:22PM 36.1111 -110.0919 257° West 452 520 43,000  Level Denver Center
05:23PM 36.0853 -110.2406 258° West 452 520 43,000  Level Denver Center
05:24PM 36.0583 -110.3919 258° West 452 520 43,000  Level Denver Center
05:25PM 36.0247 -110.5747 257° West 454 522 43,000  Level Denver Center
05:26PM 35.9981 -110.7269 258° West 454 522 43,000  Level Denver Center
05:27PM 35.9703 -110.8794 257° West 456 525 43,000  Level Denver Center
05:28PM 35.9417 -111.0319 257° West 456 525 43,000  Level Denver Center
05:29PM 35.9122 -111.1847 257° West 457 526 43,000  Level Denver Center
05:30PM 35.8839 -111.3378 257° West 457 526 43,000  Level Denver Center
05:31PM 35.8558 -111.4906 257° West 458 527 43,000  Level Denver Center
05:32PM 35.8203 -111.6742 257° West 459 528 43,000  Level Denver Center
05:33PM 35.7931 -111.8139 257° West 455 524 43,000  Level Los Angeles Center
05:34PM 35.7586 -111.9906 257° West 447 514 43,000  Level Los Angeles Center
05:35PM 35.7294 -112.1408 257° West 453 521 43,000  Level Los Angeles Center
05:36PM 35.6994 -112.2919 256° West 455 524 43,000  Level Los Angeles Center
05:37PM 35.6703 -112.4439 257° West 461 531 43,000  Level Los Angeles Center
05:38PM 35.6408 -112.5925 256° West 453 521 43,000  Level Los Angeles Center
05:39PM 35.6067 -112.7592 256° West 446 513 43,000  Level Los Angeles Center
05:40PM 35.5767 -112.9114 256° West 454 522 43,000  Level Los Angeles Center
05:42PM 35.5431 -113.0711 256° West 448 516 43,000  Level Los Angeles Center
05:43PM 35.5131 -113.2178 256° West 443 510 43,000  Level Los Angeles Center
05:44PM 35.4800 -113.3817 256° West 451 519 43,000  Level Los Angeles Center
05:45PM 35.4489 -113.5275 255° West 449 517 43,000  Level Los Angeles Center
05:46PM 35.4181 -113.6739 256° West 450 518 43,000  Level Los Angeles Center
05:47PM 35.3869 -113.8194 255° West 446 513 43,000  Level Los Angeles Center
05:48PM 35.3517 -113.9881 256° West 448 516 43,000  Level Los Angeles Center
05:49PM 35.3208 -114.1364 256° West 449 517 43,000 -660 Level Los Angeles Center
05:50PM 35.2878 -114.2850 255° West 451 519 41,700 -1,860 Descending Los Angeles Center
05:51PM 35.2542 -114.4450 256° West 479 551 39,200 -2,520 Descending Los Angeles Center
05:52PM 35.2181 -114.6058 255° West 487 560 36,600 -2,520 Descending Los Angeles Center
05:53PM 35.1825 -114.7683 255° West 491 565 34,100 -1,320 Descending Los Angeles Center
05:54PM 35.1458 -114.9356 255° West 501 577 34,000 -60 Descending Los Angeles Center
05:55PM 35.1022 -115.1314 255° West 498 573 34,000  Level Los Angeles Center
05:56PM 35.0717 -115.2689 255° West 499 574 34,000  Level Los Angeles Center
05:57PM 35.0342 -115.4375 255° West 509 586 34,000  Level Los Angeles Center
05:58PM 34.9961 -115.6075 255° West 517 595 34,000 -60 Level Los Angeles Center
05:59PM 34.9497 -115.8078 254° West 513 590 33,900 -1,260 Descending Los Angeles Center
06:00PM 34.9119 -115.9736 255° West 511 588 31,500 -2,520 Descending Los Angeles Center
06:01PM 34.8731 -116.1400 254° West 511 588 28,800 -2,700 Descending Los Angeles Center
06:02PM 34.8325 -116.3069 254° West 514 592 26,000 -2,580 Descending Los Angeles Center
06:03PM 34.7967 -116.4658 255° West 495 570 23,500 -2,460 Descending Los Angeles Center
06:04PM 34.7817 -116.6228 263° West 472 543 21,000 -1,740 Descending Los Angeles Center
06:05PM 34.7631 -116.8042 263° West 452 520 20,000 -540 Descending Los Angeles Center
06:06PM 34.7481 -116.9547 263° West 448 516 20,000  Level Los Angeles Center
06:07PM 34.7333 -117.1083 263° West 455 524 20,000 -540 Level Los Angeles Center
06:08PM 34.7161 -117.2608 262° West 454 522 19,000 -1,200 Descending Los Angeles Center
06:09PM 34.7014 -117.4106 263° West 447 514 17,600 -1,440 Descending Los Angeles Center
06:10PM 34.6856 -117.5572 263° West 439 505 16,100 -1,260 Descending Los Angeles Center
06:11PM 34.6708 -117.7019 263° West 431 496 15,000 -720 Descending Los Angeles Center
06:12PM 34.6544 -117.8461 262° West 432 497 14,700 -660 Descending Los Angeles Center
06:14PM 34.6364 -118.0144 263° West 417 480 13,600 -1,680 Descending Los Angeles Center
06:16PM 34.5794 -118.2697 256° West  Level FlightAware Approximate
06:16PM 34.5667 -118.3333 256° West 282 325 8,200  Level Southern California TRACON
06:17PM 34.5500 -118.4167 256° West 271 312 8,000 -300 Descending Southern California TRACON
06:18PM 34.5167 -118.5000 244° Southwest 285 328 7,700 -840 Descending Southern California TRACON
06:19PM 34.4500 -118.5167 192° South 286 329 6,400 -1,500 Descending Southern California TRACON
06:20PM 34.3667 -118.5000 171° South 244 281 4,800 -1,500 Descending Southern California TRACON
06:21PM 34.3167 -118.5000 180° South 179 206 3,400 -1,200 Descending Southern California TRACON
06:22PM 34.2833 -118.5000 180° South 135 155 2,400 -1,020 Descending Southern California TRACON
06:23PM 34.2333 -118.5000 180° South 139 160 1,400 -1,020 Descending Southern California TRACON
06:25PM 34.2098 -118.4900 180° South  Level Estimated
06:32PM 34.2098 -118.4900 180° South  Level Estimated